createdAt,value
2023-04-14T00:00:38.297Z,9.10
2023-04-14T00:03:07.879Z,8.23
2023-04-14T00:05:37.831Z,7.75
2023-04-14T00:08:06.391Z,8.20
2023-04-14T00:10:34.787Z,8.38
2023-04-14T00:13:03.112Z,9.15
2023-04-14T00:15:31.462Z,8.10
2023-04-14T00:17:59.819Z,7.85
2023-04-14T00:20:28.145Z,7.72
2023-04-14T00:22:57.878Z,7.47
2023-04-14T00:25:26.229Z,7.30
2023-04-14T00:27:54.598Z,7.28
2023-04-14T00:30:22.961Z,7.78
2023-04-14T00:32:51.511Z,7.70
2023-04-14T00:35:20.023Z,6.85
2023-04-14T00:37:48.357Z,7.03
2023-04-14T00:40:18.134Z,6.63
2023-04-14T00:42:47.425Z,7.03
2023-04-14T00:45:16.354Z,6.47
2023-04-14T00:47:47.186Z,5.88
2023-04-14T00:50:17.956Z,5.72
2023-04-14T00:52:48.999Z,6.10
2023-04-14T00:55:21.126Z,6.25
2023-04-14T00:57:50.622Z,5.97
2023-04-14T01:00:19.749Z,5.80
2023-04-14T01:02:48.947Z,6.22
2023-04-14T01:05:18.101Z,5.70
2023-04-14T01:07:48.314Z,5.47
2023-04-14T01:10:18.492Z,6.05
2023-04-14T01:13:07.290Z,5.20
2023-04-14T01:15:42.432Z,5.45
2023-04-14T01:18:18.217Z,5.15
2023-04-14T01:20:51.009Z,5.60
2023-04-14T01:23:24.818Z,5.30
2023-04-14T01:26:16.636Z,5.38
2023-04-14T01:29:13.119Z,5.60
2023-04-14T01:31:47.448Z,5.38
2023-04-14T01:36:55.410Z,5.88
2023-04-14T01:41:58.953Z,5.65
2023-04-14T01:47:03.375Z,5.75
2023-04-14T01:49:34.080Z,5.72
2023-04-14T01:52:05.454Z,5.85
2023-04-14T01:54:36.016Z,5.85
2023-04-14T01:57:06.378Z,6.07
2023-04-14T01:59:37.624Z,5.65
2023-04-14T02:02:10.978Z,5.50
2023-04-14T02:04:42.320Z,5.95
2023-04-14T02:07:12.538Z,5.88
2023-04-14T02:09:43.078Z,6.30
2023-04-14T02:12:13.014Z,5.90
2023-04-14T02:14:43.660Z,5.85
2023-04-14T02:17:14.566Z,5.65
2023-04-14T02:19:45.054Z,6.00
2023-04-14T02:22:13.760Z,6.15
2023-04-14T02:24:42.170Z,5.90
2023-04-14T02:27:12.855Z,6.13
2023-04-14T02:29:46.360Z,5.88
2023-04-14T02:32:28.910Z,5.67
2023-04-14T02:35:03.318Z,5.45
2023-04-14T02:40:08.477Z,5.45
2023-04-14T02:42:41.399Z,5.53
2023-04-14T02:45:14.810Z,6.05
2023-04-14T02:47:48.728Z,5.80
2023-04-14T02:50:19.515Z,5.18
2023-04-14T02:52:51.418Z,5.60
2023-04-14T02:55:21.479Z,5.45
2023-04-14T02:57:51.574Z,5.38
2023-04-14T03:00:21.406Z,4.95
2023-04-14T03:02:54.284Z,5.05
2023-04-14T03:05:23.083Z,5.20
2023-04-14T03:07:53.676Z,5.40
2023-04-14T03:10:23.992Z,5.22
2023-04-14T03:12:53.997Z,5.55
2023-04-14T03:15:23.629Z,5.88
2023-04-14T03:17:56.428Z,5.40
2023-04-14T03:20:26.337Z,5.38
2023-04-14T03:23:00.965Z,5.50
2023-04-14T03:25:30.215Z,5.40
2023-04-14T03:28:02.089Z,5.57
2023-04-14T03:30:32.800Z,5.65
2023-04-14T03:33:08.206Z,5.15
2023-04-14T03:35:37.742Z,5.50
2023-04-14T03:38:09.236Z,6.50
2023-04-14T03:40:48.377Z,5.85
2023-04-14T03:43:20.095Z,5.70
2023-04-14T03:45:50.163Z,5.90
2023-04-14T03:48:25.366Z,5.22
2023-04-14T03:50:54.844Z,5.30
2023-04-14T03:53:23.231Z,5.90
2023-04-14T03:55:54.851Z,5.68
2023-04-14T03:58:24.144Z,5.65
2023-04-14T04:00:54.103Z,5.57
2023-04-14T04:03:25.607Z,5.75
2023-04-14T04:05:55.249Z,6.00
2023-04-14T04:08:24.580Z,5.63
2023-04-14T04:10:54.997Z,5.55
2023-04-14T04:13:24.997Z,5.43
2023-04-14T04:15:53.676Z,5.15
2023-04-14T04:18:26.965Z,5.25
2023-04-14T04:20:58.783Z,5.68
2023-04-14T04:23:35.298Z,4.90
2023-04-14T04:26:04.038Z,4.95
2023-04-14T04:28:32.745Z,4.57
2023-04-14T04:31:02.118Z,5.40
2023-04-14T04:33:32.503Z,4.90
2023-04-14T04:36:02.283Z,4.47
2023-04-14T04:38:30.672Z,5.38
2023-04-14T04:40:59.256Z,4.50
2023-04-14T04:43:27.597Z,4.22
2023-04-14T04:46:14.071Z,4.70
2023-04-14T04:48:43.781Z,4.78
2023-04-14T04:51:12.077Z,5.00
2023-04-14T04:53:40.551Z,5.22
2023-04-14T04:56:09.423Z,4.60
2023-04-14T04:58:37.778Z,4.57
2023-04-14T05:01:09.408Z,4.70
2023-04-14T05:03:38.232Z,5.03
2023-04-14T05:06:08.198Z,5.05
2023-04-14T05:08:36.563Z,4.53
2023-04-14T05:11:05.758Z,5.30
2023-04-14T05:13:34.362Z,4.95
2023-04-14T05:16:06.457Z,5.55
2023-04-14T05:18:36.488Z,6.18
2023-04-14T05:21:05.640Z,5.22
2023-04-14T05:23:36.344Z,5.78
2023-04-14T05:26:26.927Z,5.18
2023-04-14T05:28:54.311Z,5.32
2023-04-14T05:31:23.211Z,5.35
2023-04-14T05:33:51.555Z,4.80
2023-04-14T05:36:20.004Z,5.28
2023-04-14T05:38:49.703Z,5.47
2023-04-14T05:41:18.039Z,5.93
2023-04-14T05:43:46.374Z,6.03
2023-04-14T05:46:14.732Z,6.00
2023-04-14T05:48:43.587Z,5.80
2023-04-14T05:51:11.924Z,5.72
2023-04-14T05:53:40.268Z,5.57
2023-04-14T05:56:11.519Z,5.50
2023-04-14T05:58:39.893Z,6.00
2023-04-14T06:01:08.220Z,6.20
2023-04-14T06:03:39.470Z,5.85
2023-04-14T06:06:09.054Z,7.10
2023-04-14T06:08:37.461Z,6.72
2023-04-14T06:11:06.640Z,6.47
2023-04-14T06:13:36.653Z,6.03
2023-04-14T06:16:05.273Z,6.75
2023-04-14T06:18:33.624Z,6.15
2023-04-14T06:21:02.962Z,6.25
2023-04-14T06:23:31.569Z,6.40
2023-04-14T06:25:59.950Z,8.27
2023-04-14T06:28:28.257Z,7.65
2023-04-14T06:30:58.074Z,7.90
2023-04-14T06:33:26.399Z,7.30
2023-04-14T06:35:54.873Z,6.13
2023-04-14T06:38:24.707Z,7.05
2023-04-14T06:40:53.479Z,6.95
2023-04-14T06:43:23.089Z,6.40
2023-04-14T06:45:51.793Z,7.15
2023-04-14T06:48:21.514Z,6.32
2023-04-14T06:50:58.628Z,7.50
2023-04-14T06:53:26.946Z,7.30
2023-04-14T06:56:00.497Z,7.38
2023-04-14T06:58:29.781Z,7.78
2023-04-14T07:00:58.449Z,7.57
2023-04-14T07:03:29.517Z,7.43
2023-04-14T07:06:04.455Z,7.78
2023-04-14T07:08:34.910Z,8.20
2023-04-14T07:11:04.378Z,8.77
2023-04-14T07:13:33.770Z,8.05
2023-04-14T07:16:02.816Z,8.10
2023-04-14T07:18:33.082Z,8.90
2023-04-14T07:21:01.865Z,8.90
2023-04-14T07:23:30.301Z,8.65
2023-04-14T07:25:59.913Z,9.15
2023-04-14T07:28:29.198Z,8.40
2023-04-14T07:30:57.558Z,7.88
2023-04-14T07:33:27.121Z,9.23
2023-04-14T07:36:01.958Z,8.73
2023-04-14T07:38:32.343Z,8.13
2023-04-14T07:41:01.395Z,8.63
2023-04-14T07:43:35.001Z,7.57
2023-04-14T07:46:05.397Z,7.55
2023-04-14T07:48:35.667Z,7.75
2023-04-14T07:51:06.819Z,8.40
2023-04-14T07:53:40.331Z,8.63
2023-04-14T07:56:09.006Z,7.67
2023-04-14T07:58:37.361Z,7.38
2023-04-14T08:01:06.367Z,7.35
2023-04-14T08:03:36.348Z,8.50
2023-04-14T08:06:07.546Z,6.95
2023-04-14T08:08:36.701Z,7.75
2023-04-14T08:11:05.175Z,7.38
2023-04-14T08:13:33.513Z,7.72
2023-04-14T08:16:02.065Z,8.15
2023-04-14T08:18:30.469Z,7.53
2023-04-14T08:20:58.834Z,7.80
2023-04-14T08:23:28.580Z,7.82
2023-04-14T08:25:57.031Z,6.82
2023-04-14T08:28:25.539Z,6.28
2023-04-14T08:30:53.874Z,5.78
2023-04-14T08:33:22.339Z,6.38
2023-04-14T08:35:56.405Z,6.03
2023-04-14T08:38:30.068Z,6.13
2023-04-14T08:40:58.497Z,5.40
2023-04-14T08:43:26.967Z,5.72
2023-04-14T08:45:57.769Z,5.80
2023-04-14T08:48:31.800Z,5.82
2023-04-14T08:51:07.785Z,5.57
2023-04-14T08:53:45.151Z,5.55
2023-04-14T08:56:17.178Z,5.97
2023-04-14T08:58:47.393Z,5.57
2023-04-14T09:01:16.694Z,5.97
2023-04-14T09:03:46.124Z,5.97
2023-04-14T09:06:15.304Z,5.63
2023-04-14T09:08:45.694Z,5.30
2023-04-14T09:11:16.774Z,5.50
2023-04-14T09:13:45.818Z,5.90
2023-04-14T09:16:15.410Z,7.43
2023-04-14T09:18:44.382Z,6.90
2023-04-14T09:21:29.213Z,6.72
2023-04-14T09:24:10.437Z,6.68
2023-04-14T09:26:40.335Z,6.55
2023-04-14T09:29:08.892Z,7.30
2023-04-14T09:31:37.986Z,7.15
2023-04-14T09:34:16.665Z,7.18
2023-04-14T09:37:00.990Z,7.47
2023-04-14T09:39:31.294Z,7.05
2023-04-14T09:41:59.946Z,7.32
2023-04-14T09:44:28.626Z,7.35
2023-04-14T09:46:58.110Z,9.13
2023-04-14T09:49:26.592Z,7.90
2023-04-14T09:51:56.457Z,7.63
2023-04-14T09:54:26.406Z,8.40
2023-04-14T09:56:56.689Z,8.82
2023-04-14T09:59:33.890Z,8.80
2023-04-14T10:02:06.103Z,8.10
2023-04-14T10:04:35.258Z,8.43
2023-04-14T10:07:07.393Z,8.43
2023-04-14T10:09:37.800Z,9.23
2023-04-14T10:12:13.301Z,8.82
2023-04-14T10:14:42.422Z,7.97
2023-04-14T10:17:11.759Z,9.15
2023-04-14T10:19:40.230Z,8.95
2023-04-14T10:22:08.646Z,9.75
2023-04-14T10:24:37.906Z,8.40
2023-04-14T10:27:06.881Z,7.53
2023-04-14T10:29:36.756Z,7.18
2023-04-14T10:32:09.507Z,7.38
2023-04-14T10:34:42.494Z,8.07
2023-04-14T10:37:14.818Z,9.32
2023-04-14T10:39:43.985Z,7.28
2023-04-14T10:42:12.658Z,7.70
2023-04-14T10:44:43.173Z,7.35
2023-04-14T10:47:11.964Z,7.50
2023-04-14T10:49:44.486Z,7.78
2023-04-14T10:52:34.494Z,7.65
2023-04-14T10:55:08.785Z,7.00
2023-04-14T11:03:05.351Z,8.05
2023-04-14T11:05:35.281Z,10.27
2023-04-14T11:08:14.828Z,8.10
2023-04-14T11:10:49.467Z,6.93
2023-04-14T11:13:19.326Z,6.53
2023-04-14T11:15:50.758Z,6.85
2023-04-14T11:18:32.381Z,8.68
2023-04-14T11:21:05.522Z,7.55
2023-04-14T11:23:35.192Z,7.07
2023-04-14T11:26:06.711Z,8.07
2023-04-14T11:28:37.230Z,9.48
2023-04-14T11:31:08.361Z,7.60
2023-04-14T11:33:39.946Z,7.60
2023-04-14T11:36:12.465Z,8.95
2023-04-14T11:38:41.542Z,8.30
2023-04-14T11:41:10.921Z,8.70
2023-04-14T11:43:46.373Z,8.48
2023-04-14T11:46:15.618Z,8.43
2023-04-14T11:48:45.871Z,8.35
2023-04-14T11:51:14.697Z,8.13
2023-04-14T11:53:43.487Z,7.60
2023-04-14T11:56:13.021Z,7.43
2023-04-14T11:58:42.116Z,8.30
2023-04-14T12:01:14.429Z,7.90
2023-04-14T12:03:44.117Z,7.20
2023-04-14T12:06:14.198Z,8.05
2023-04-14T12:08:42.761Z,6.80
2023-04-14T12:11:15.052Z,5.88
2023-04-14T12:13:45.009Z,6.78
2023-04-14T12:16:15.118Z,6.97
2023-04-14T12:18:44.652Z,6.70
2023-04-14T12:21:18.773Z,6.35
2023-04-14T12:23:49.583Z,6.30
2023-04-14T12:26:19.663Z,6.57
2023-04-14T12:28:57.143Z,7.25
2023-04-14T12:31:29.675Z,6.88
2023-04-14T12:34:03.482Z,6.15
2023-04-14T12:36:48.802Z,7.07
2023-04-14T12:39:18.892Z,6.13
2023-04-14T12:41:47.830Z,6.25
2023-04-14T12:44:17.444Z,6.45
2023-04-14T12:46:49.989Z,6.75
2023-04-14T12:49:36.225Z,6.68
2023-04-14T12:52:08.042Z,7.07
2023-04-14T12:54:51.612Z,8.23
2023-04-14T12:57:22.949Z,6.05
2023-04-14T12:59:51.996Z,6.72
2023-04-14T13:02:20.879Z,6.53
2023-04-14T13:04:49.678Z,6.40
2023-04-14T13:07:20.215Z,6.80
2023-04-14T13:09:48.547Z,6.45
2023-04-14T13:12:16.904Z,7.07
2023-04-14T13:14:45.249Z,6.63
2023-04-14T13:17:13.766Z,6.70
2023-04-14T13:19:43.092Z,6.68
2023-04-14T13:22:11.427Z,6.70
2023-04-14T13:24:41.196Z,6.75
2023-04-14T13:27:09.639Z,7.20
2023-04-14T13:29:38.862Z,6.78
2023-04-14T13:32:10.077Z,7.20
2023-04-14T13:34:39.316Z,6.80
2023-04-14T13:37:07.672Z,6.85
2023-04-14T13:39:36.106Z,6.65
2023-04-14T13:42:05.893Z,6.80
2023-04-14T13:44:35.254Z,7.85
2023-04-14T13:47:03.710Z,6.97
2023-04-14T13:49:32.108Z,7.25
2023-04-14T13:52:00.438Z,7.28
2023-04-14T13:54:28.769Z,7.47
2023-04-14T13:56:57.898Z,7.90
2023-04-14T13:59:27.607Z,7.10
2023-04-14T14:01:56.036Z,7.95
2023-04-14T14:04:24.929Z,15.25
2023-04-14T14:06:53.355Z,7.28
2023-04-14T14:09:21.694Z,7.80
2023-04-14T14:11:50.030Z,8.00
2023-04-14T14:14:18.446Z,8.27
2023-04-14T14:16:48.273Z,7.90
2023-04-14T14:19:18.252Z,7.75
2023-04-14T14:21:46.709Z,6.57
2023-04-14T14:24:15.139Z,6.43
2023-04-14T14:26:43.505Z,6.05
2023-04-14T14:29:11.851Z,6.88
2023-04-14T14:31:40.354Z,5.63
2023-04-14T14:34:10.141Z,5.20
2023-04-14T14:36:38.539Z,5.78
2023-04-14T14:39:07.002Z,6.28
2023-04-14T14:41:35.394Z,5.85
2023-04-14T14:44:03.846Z,6.07
2023-04-14T14:46:32.924Z,14.23
2023-04-14T14:49:01.821Z,5.53
2023-04-14T14:51:31.786Z,6.10
2023-04-14T14:54:09.216Z,5.60
2023-04-14T14:56:38.361Z,4.72
2023-04-14T14:59:08.475Z,5.97
2023-04-14T15:01:37.177Z,6.30
2023-04-14T15:04:06.567Z,6.25
2023-04-14T15:06:37.533Z,5.32
2023-04-14T15:09:06.550Z,11.82
2023-04-14T15:11:34.914Z,21.38
2023-04-14T15:14:03.954Z,6.70
2023-04-14T15:16:32.603Z,5.85
2023-04-14T15:19:01.021Z,7.80
2023-04-14T15:21:29.399Z,5.70
2023-04-14T15:23:59.834Z,5.50
2023-04-14T15:26:28.325Z,5.70
2023-04-14T15:28:56.655Z,4.90
2023-04-14T15:31:25.097Z,5.50
2023-04-14T15:33:54.739Z,5.95
2023-04-14T15:36:23.494Z,6.32
2023-04-14T15:38:51.861Z,5.60
2023-04-14T15:41:21.636Z,6.30
2023-04-14T15:43:50.644Z,7.53
2023-04-14T15:46:19.687Z,6.85
2023-04-14T15:48:48.074Z,6.53
2023-04-14T15:51:16.431Z,6.45
2023-04-14T15:53:44.794Z,6.47
2023-04-14T15:56:13.184Z,7.25
2023-04-14T15:58:42.948Z,5.45
2023-04-14T16:01:11.401Z,5.60
2023-04-14T16:03:40.168Z,8.48
2023-04-14T16:06:08.591Z,7.05
2023-04-14T16:08:37.322Z,5.80
2023-04-14T16:11:05.746Z,6.28
2023-04-14T16:13:34.125Z,6.90
2023-04-14T16:16:03.823Z,5.80
2023-04-14T16:18:32.274Z,6.50
2023-04-14T16:21:01.071Z,6.18
2023-04-14T16:23:29.517Z,5.63
2023-04-14T16:25:58.001Z,6.40
2023-04-14T16:28:26.951Z,6.20
2023-04-14T16:30:55.368Z,6.20
2023-04-14T16:33:25.550Z,7.05
2023-04-14T16:35:53.898Z,6.30
2023-04-14T16:38:22.938Z,5.55
2023-04-14T16:40:56.525Z,5.50
2023-04-14T16:43:26.210Z,5.85
2023-04-14T16:45:54.699Z,6.18
2023-04-14T16:48:23.098Z,6.43
2023-04-14T16:50:53.900Z,7.28
2023-04-14T16:53:22.740Z,5.40
2023-04-14T16:55:51.347Z,5.50
2023-04-14T16:58:19.665Z,5.60
2023-04-14T17:00:48.058Z,6.18
2023-04-14T17:03:16.746Z,6.28
2023-04-14T17:05:45.153Z,5.70
2023-04-14T17:08:15.401Z,6.72
2023-04-14T17:10:44.074Z,6.97
2023-04-14T17:13:12.460Z,5.40
2023-04-14T17:15:40.811Z,5.57
2023-04-14T17:18:09.174Z,5.78
2023-04-14T17:20:39.642Z,5.70
2023-04-14T17:23:08.083Z,6.00
2023-04-14T17:25:38.474Z,5.97
2023-04-14T17:28:07.008Z,5.93
2023-04-14T17:30:38.894Z,5.93
2023-04-14T17:33:08.637Z,6.15
2023-04-14T17:35:37.522Z,8.40
2023-04-14T17:38:06.547Z,8.90
2023-04-14T17:40:35.021Z,9.15
2023-04-14T17:43:05.409Z,7.68
2023-04-14T17:45:35.108Z,6.82
2023-04-14T17:48:03.755Z,6.70
2023-04-14T17:50:32.222Z,7.15
2023-04-14T17:53:01.088Z,7.43
2023-04-14T17:55:29.548Z,6.70
2023-04-14T17:57:57.922Z,6.57
2023-04-14T18:00:29.446Z,6.57
2023-04-14T18:02:58.194Z,7.43
2023-04-14T18:05:26.596Z,7.30
2023-04-14T18:07:55.622Z,7.00
2023-04-14T18:10:24.796Z,7.18
2023-04-14T18:12:53.222Z,6.60
2023-04-14T18:15:23.586Z,7.35
2023-04-14T18:17:53.346Z,7.78
2023-04-14T18:20:25.675Z,7.25
2023-04-14T18:22:54.641Z,8.40
2023-04-14T18:25:23.026Z,8.55
2023-04-14T18:30:23.017Z,7.93
2023-04-14T18:32:53.650Z,8.48
2023-04-14T18:35:22.090Z,8.07
2023-04-14T18:37:50.498Z,8.20
2023-04-14T18:40:19.155Z,8.57
2023-04-14T18:42:48.948Z,9.23
2023-04-14T18:45:17.624Z,8.80
2023-04-14T18:47:47.697Z,9.15
2023-04-14T18:50:18.224Z,9.05
2023-04-14T18:52:46.709Z,8.50
2023-04-14T18:55:15.420Z,9.13
2023-04-14T18:57:43.914Z,9.35
2023-04-14T19:00:14.022Z,13.65
2023-04-14T19:02:42.685Z,9.10
2023-04-14T19:05:11.771Z,8.85
2023-04-14T19:07:41.575Z,9.43
2023-04-14T19:10:11.023Z,9.07
2023-04-14T19:12:40.533Z,9.23
2023-04-14T19:15:09.878Z,18.17
2023-04-14T19:17:39.012Z,9.80
2023-04-14T19:20:08.701Z,8.77
2023-04-14T19:22:37.009Z,10.10
2023-04-14T19:25:08.617Z,9.88
2023-04-14T19:27:38.502Z,9.38
2023-04-14T19:30:08.014Z,9.90
2023-04-14T19:32:36.862Z,11.38
2023-04-14T19:35:07.517Z,10.20
2023-04-14T19:37:36.164Z,11.27
2023-04-14T19:40:08.205Z,12.77
2023-04-14T19:42:36.647Z,12.65
2023-04-14T19:45:05.779Z,11.20
2023-04-14T19:47:34.222Z,10.95
2023-04-14T19:50:02.669Z,11.75
2023-04-14T19:52:30.979Z,10.77
2023-04-14T19:54:59.326Z,11.85
2023-04-14T19:57:29.085Z,14.75
2023-04-14T19:59:57.424Z,12.55
2023-04-14T20:02:30.308Z,11.98
2023-04-14T20:04:58.974Z,11.25
2023-04-14T20:07:27.569Z,15.55
2023-04-14T20:09:55.874Z,12.82
2023-04-14T20:12:24.285Z,12.00
2023-04-14T20:14:54.007Z,12.02
2023-04-14T20:17:23.398Z,12.40
2023-04-14T20:19:51.784Z,12.60
2023-04-14T20:22:20.122Z,14.15
2023-04-14T20:24:48.666Z,13.50
2023-04-14T20:27:17.191Z,12.55
2023-04-14T20:29:46.296Z,12.70
2023-04-14T20:32:16.587Z,13.20
2023-04-14T20:34:44.893Z,16.73
2023-04-14T20:37:13.429Z,13.20
2023-04-14T20:39:41.730Z,12.52
2023-04-14T20:42:10.294Z,12.77
2023-04-14T20:44:38.631Z,14.50
2023-04-14T20:47:08.316Z,14.98
2023-04-14T20:49:38.127Z,13.00
2023-04-14T20:52:07.536Z,13.32
2023-04-14T20:54:36.467Z,14.05
2023-04-14T20:57:05.653Z,13.85
2023-04-14T20:59:34.231Z,15.10
2023-04-14T21:02:03.093Z,15.52
2023-04-14T21:04:32.296Z,15.50
2023-04-14T21:07:02.135Z,16.83
2023-04-14T21:09:30.911Z,17.50
2023-04-14T21:12:15.279Z,16.35
2023-04-14T21:15:30.694Z,16.83
2023-04-14T21:17:34.853Z,15.05
2023-04-14T21:20:04.570Z,15.85
2023-04-14T21:22:34.386Z,16.13
2023-04-14T21:25:02.936Z,16.00
2023-04-14T21:27:31.334Z,16.70
2023-04-14T21:29:59.742Z,15.30
2023-04-14T21:32:28.713Z,16.88
2023-04-14T21:34:57.275Z,16.73
2023-04-14T21:37:25.691Z,17.33
2023-04-14T21:39:56.215Z,17.60
2023-04-14T21:42:24.741Z,16.80
2023-04-14T21:44:55.143Z,16.60
2023-04-14T21:47:23.545Z,16.90
2023-04-14T21:49:52.052Z,16.95
2023-04-14T21:52:20.784Z,17.27
2023-04-14T21:54:50.291Z,17.98
2023-04-14T21:57:48.989Z,16.38
2023-04-14T22:00:13.187Z,15.50
2023-04-14T22:02:42.916Z,16.87
2023-04-14T22:05:11.603Z,17.13
2023-04-14T22:07:40.186Z,16.63
2023-04-14T22:10:09.230Z,17.02
2023-04-14T22:12:39.793Z,17.73
2023-04-14T22:15:10.353Z,16.52
2023-04-14T22:17:39.606Z,17.13
2023-04-14T22:20:09.541Z,17.05
2023-04-14T22:22:37.982Z,17.75
2023-04-14T22:25:07.704Z,17.83
2023-04-14T22:27:36.155Z,18.60
2023-04-14T22:30:06.759Z,17.70
2023-04-14T22:32:35.802Z,18.48
2023-04-14T22:35:04.481Z,17.42
2023-04-14T22:37:32.840Z,17.70
2023-04-14T22:40:03.321Z,17.35
2023-04-14T22:42:31.996Z,18.55
2023-04-14T22:45:01.248Z,17.75
2023-04-14T22:47:31.452Z,18.52
2023-04-14T22:50:00.162Z,20.80
2023-04-14T22:52:28.935Z,18.67
2023-04-14T22:54:57.298Z,20.50
2023-04-14T22:57:26.566Z,20.02
2023-04-14T22:59:54.950Z,19.58
2023-04-14T23:02:23.756Z,19.00
2023-04-14T23:04:53.674Z,20.02
2023-04-14T23:07:22.132Z,19.35
2023-04-14T23:09:51.023Z,19.25
2023-04-14T23:12:19.368Z,19.27
2023-04-14T23:14:47.710Z,19.38
2023-04-14T23:17:16.280Z,19.65
2023-04-14T23:19:44.597Z,20.83
2023-04-14T23:22:14.531Z,20.73
2023-04-14T23:24:42.881Z,20.77
2023-04-14T23:27:11.295Z,22.33
2023-04-14T23:29:40.197Z,21.17
2023-04-14T23:32:09.554Z,20.02
2023-04-14T23:34:38.599Z,22.20
2023-04-14T23:37:07.671Z,22.20
2023-04-14T23:39:37.640Z,21.60
2023-04-14T23:42:06.126Z,21.83
2023-04-14T23:44:34.498Z,22.45
2023-04-14T23:47:03.295Z,23.70
2023-04-14T23:49:34.381Z,22.65
2023-04-14T23:52:04.172Z,22.42
2023-04-14T23:54:32.692Z,22.95
2023-04-14T23:57:02.411Z,23.35
2023-04-14T23:59:31.190Z,24.40
